sensor_id;sensor_type;location;lat;lon;timestamp;P1;durP1;ratioP1;P2;durP2;ratioP2
55025;SDS011;40925;45.666;18.994;2023-12-07T00:02:25;37.03;;;18.35;;
55025;SDS011;40925;45.666;18.994;2023-12-07T00:04:51;36.25;;;19.52;;
55025;SDS011;40925;45.666;18.994;2023-12-07T00:07:16;40.22;;;19.98;;
55025;SDS011;40925;45.666;18.994;2023-12-07T00:09:42;38.80;;;19.80;;
55025;SDS011;40925;45.666;18.994;2023-12-07T00:12:08;38.65;;;19.83;;
55025;SDS011;40925;45.666;18.994;2023-12-07T00:14:33;38.92;;;19.35;;
55025;SDS011;40925;45.666;18.994;2023-12-07T00:16:59;36.97;;;19.70;;
55025;SDS011;40925;45.666;18.994;2023-12-07T00:19:25;39.47;;;19.80;;
55025;SDS011;40925;45.666;18.994;2023-12-07T00:21:53;41.13;;;20.63;;
55025;SDS011;40925;45.666;18.994;2023-12-07T00:24:20;31.05;;;15.32;;
55025;SDS011;40925;45.666;18.994;2023-12-07T00:26:46;38.58;;;18.60;;
55025;SDS011;40925;45.666;18.994;2023-12-07T00:29:11;39.60;;;19.95;;
55025;SDS011;40925;45.666;18.994;2023-12-07T00:31:37;41.10;;;21.05;;
55025;SDS011;40925;45.666;18.994;2023-12-07T00:34:02;37.88;;;18.30;;
55025;SDS011;40925;45.666;18.994;2023-12-07T00:36:28;40.20;;;20.13;;
55025;SDS011;40925;45.666;18.994;2023-12-07T00:38:57;41.10;;;21.40;;
55025;SDS011;40925;45.666;18.994;2023-12-07T00:41:23;42.05;;;20.55;;
55025;SDS011;40925;45.666;18.994;2023-12-07T00:43:51;43.83;;;22.42;;
55025;SDS011;40925;45.666;18.994;2023-12-07T00:46:17;41.42;;;21.23;;
55025;SDS011;40925;45.666;18.994;2023-12-07T00:48:42;41.72;;;21.35;;
55025;SDS011;40925;45.666;18.994;2023-12-07T00:51:09;39.63;;;20.20;;
55025;SDS011;40925;45.666;18.994;2023-12-07T00:53:35;39.38;;;19.23;;
55025;SDS011;40925;45.666;18.994;2023-12-07T00:56:02;40.22;;;20.80;;
55025;SDS011;40925;45.666;18.994;2023-12-07T00:58:28;41.55;;;21.42;;
55025;SDS011;40925;45.666;18.994;2023-12-07T01:00:54;40.95;;;20.55;;
55025;SDS011;40925;45.666;18.994;2023-12-07T01:03:19;41.83;;;21.73;;
55025;SDS011;40925;45.666;18.994;2023-12-07T01:05:45;46.22;;;22.35;;
55025;SDS011;40925;45.666;18.994;2023-12-07T01:08:11;48.90;;;24.20;;
55025;SDS011;40925;45.666;18.994;2023-12-07T01:10:36;47.05;;;22.58;;
55025;SDS011;40925;45.666;18.994;2023-12-07T01:13:02;45.03;;;22.27;;
55025;SDS011;40925;45.666;18.994;2023-12-07T01:15:28;50.47;;;23.35;;
55025;SDS011;40925;45.666;18.994;2023-12-07T01:17:53;52.25;;;23.73;;
55025;SDS011;40925;45.666;18.994;2023-12-07T01:20:19;40.92;;;19.90;;
55025;SDS011;40925;45.666;18.994;2023-12-07T01:22:48;49.92;;;23.60;;
55025;SDS011;40925;45.666;18.994;2023-12-07T01:25:13;47.85;;;21.15;;
55025;SDS011;40925;45.666;18.994;2023-12-07T01:27:46;45.47;;;20.83;;
55025;SDS011;40925;45.666;18.994;2023-12-07T01:30:13;42.85;;;20.08;;
55025;SDS011;40925;45.666;18.994;2023-12-07T01:32:39;47.03;;;22.13;;
55025;SDS011;40925;45.666;18.994;2023-12-07T01:35:05;42.63;;;20.45;;
55025;SDS011;40925;45.666;18.994;2023-12-07T01:37:31;48.53;;;23.13;;
55025;SDS011;40925;45.666;18.994;2023-12-07T01:39:57;47.55;;;22.77;;
55025;SDS011;40925;45.666;18.994;2023-12-07T01:42:22;45.17;;;21.80;;
55025;SDS011;40925;45.666;18.994;2023-12-07T01:44:48;47.63;;;21.52;;
55025;SDS011;40925;45.666;18.994;2023-12-07T01:47:13;42.75;;;20.42;;
55025;SDS011;40925;45.666;18.994;2023-12-07T01:49:40;46.40;;;22.13;;
55025;SDS011;40925;45.666;18.994;2023-12-07T01:52:06;37.40;;;18.33;;
55025;SDS011;40925;45.666;18.994;2023-12-07T01:54:34;44.55;;;20.55;;
55025;SDS011;40925;45.666;18.994;2023-12-07T01:57:00;44.63;;;20.48;;
55025;SDS011;40925;45.666;18.994;2023-12-07T01:59:26;46.55;;;22.42;;
55025;SDS011;40925;45.666;18.994;2023-12-07T02:01:53;39.08;;;18.83;;
55025;SDS011;40925;45.666;18.994;2023-12-07T02:04:18;42.67;;;20.88;;
55025;SDS011;40925;45.666;18.994;2023-12-07T02:06:45;41.90;;;20.38;;
55025;SDS011;40925;45.666;18.994;2023-12-07T02:09:11;42.33;;;20.48;;
55025;SDS011;40925;45.666;18.994;2023-12-07T02:11:36;39.95;;;18.45;;
55025;SDS011;40925;45.666;18.994;2023-12-07T02:14:02;40.22;;;19.23;;
55025;SDS011;40925;45.666;18.994;2023-12-07T02:19:24;48.00;;;22.80;;
55025;SDS011;40925;45.666;18.994;2023-12-07T02:22:02;47.63;;;23.00;;
55025;SDS011;40925;45.666;18.994;2023-12-07T02:24:44;49.83;;;22.13;;
55025;SDS011;40925;45.666;18.994;2023-12-07T02:27:32;47.40;;;22.60;;
55025;SDS011;40925;45.666;18.994;2023-12-07T02:30:00;45.15;;;21.13;;
55025;SDS011;40925;45.666;18.994;2023-12-07T02:32:29;48.30;;;22.63;;
55025;SDS011;40925;45.666;18.994;2023-12-07T02:34:55;48.35;;;23.27;;
55025;SDS011;40925;45.666;18.994;2023-12-07T02:37:21;53.03;;;23.80;;
55025;SDS011;40925;45.666;18.994;2023-12-07T02:39:50;47.10;;;21.33;;
55025;SDS011;40925;45.666;18.994;2023-12-07T02:42:18;54.33;;;24.63;;
55025;SDS011;40925;45.666;18.994;2023-12-07T02:44:45;51.10;;;23.88;;
55025;SDS011;40925;45.666;18.994;2023-12-07T02:47:11;58.15;;;26.85;;
55025;SDS011;40925;45.666;18.994;2023-12-07T02:49:37;50.42;;;23.08;;
55025;SDS011;40925;45.666;18.994;2023-12-07T02:52:03;58.53;;;26.77;;
55025;SDS011;40925;45.666;18.994;2023-12-07T02:54:29;55.38;;;23.58;;
55025;SDS011;40925;45.666;18.994;2023-12-07T02:56:54;57.03;;;23.67;;
55025;SDS011;40925;45.666;18.994;2023-12-07T02:59:20;60.72;;;25.90;;
55025;SDS011;40925;45.666;18.994;2023-12-07T03:01:46;57.55;;;24.65;;
55025;SDS011;40925;45.666;18.994;2023-12-07T03:04:12;62.70;;;27.40;;
55025;SDS011;40925;45.666;18.994;2023-12-07T03:06:37;57.95;;;24.88;;
55025;SDS011;40925;45.666;18.994;2023-12-07T03:09:03;62.60;;;27.65;;
55025;SDS011;40925;45.666;18.994;2023-12-07T03:11:29;71.95;;;30.02;;
55025;SDS011;40925;45.666;18.994;2023-12-07T03:13:54;67.22;;;28.33;;
55025;SDS011;40925;45.666;18.994;2023-12-07T03:16:23;73.90;;;30.42;;
55025;SDS011;40925;45.666;18.994;2023-12-07T03:18:48;67.68;;;29.08;;
55025;SDS011;40925;45.666;18.994;2023-12-07T03:21:14;83.07;;;32.50;;
55025;SDS011;40925;45.666;18.994;2023-12-07T03:23:39;67.95;;;29.27;;
55025;SDS011;40925;45.666;18.994;2023-12-07T03:26:05;76.75;;;32.67;;
55025;SDS011;40925;45.666;18.994;2023-12-07T03:28:31;66.93;;;28.50;;
55025;SDS011;40925;45.666;18.994;2023-12-07T03:30:57;66.90;;;28.50;;
55025;SDS011;40925;45.666;18.994;2023-12-07T03:33:23;69.55;;;29.02;;
55025;SDS011;40925;45.666;18.994;2023-12-07T03:35:48;72.28;;;31.65;;
55025;SDS011;40925;45.666;18.994;2023-12-07T03:38:14;75.93;;;32.00;;
55025;SDS011;40925;45.666;18.994;2023-12-07T03:40:40;74.45;;;31.20;;
55025;SDS011;40925;45.666;18.994;2023-12-07T03:43:06;63.47;;;26.60;;
55025;SDS011;40925;45.666;18.994;2023-12-07T03:45:31;71.55;;;31.23;;
55025;SDS011;40925;45.666;18.994;2023-12-07T03:47:57;71.20;;;31.08;;
55025;SDS011;40925;45.666;18.994;2023-12-07T03:50:26;67.80;;;29.58;;
55025;SDS011;40925;45.666;18.994;2023-12-07T03:52:51;71.40;;;29.50;;
55025;SDS011;40925;45.666;18.994;2023-12-07T03:55:17;69.55;;;28.65;;
55025;SDS011;40925;45.666;18.994;2023-12-07T03:57:42;71.50;;;31.17;;
55025;SDS011;40925;45.666;18.994;2023-12-07T04:00:10;69.53;;;30.52;;
55025;SDS011;40925;45.666;18.994;2023-12-07T04:02:36;72.07;;;32.10;;
55025;SDS011;40925;45.666;18.994;2023-12-07T04:05:02;73.35;;;32.63;;
55025;SDS011;40925;45.666;18.994;2023-12-07T04:07:28;73.65;;;31.33;;
55025;SDS011;40925;45.666;18.994;2023-12-07T04:09:57;70.63;;;30.38;;
55025;SDS011;40925;45.666;18.994;2023-12-07T04:12:23;69.50;;;30.17;;
55025;SDS011;40925;45.666;18.994;2023-12-07T04:14:49;64.40;;;26.90;;
55025;SDS011;40925;45.666;18.994;2023-12-07T04:17:16;53.13;;;22.67;;
55025;SDS011;40925;45.666;18.994;2023-12-07T04:19:43;74.60;;;31.92;;
55025;SDS011;40925;45.666;18.994;2023-12-07T04:22:08;60.00;;;25.55;;
55025;SDS011;40925;45.666;18.994;2023-12-07T04:24:34;69.90;;;30.52;;
55025;SDS011;40925;45.666;18.994;2023-12-07T04:26:59;65.57;;;29.52;;
55025;SDS011;40925;45.666;18.994;2023-12-07T04:29:28;58.05;;;24.90;;
55025;SDS011;40925;45.666;18.994;2023-12-07T04:31:54;60.88;;;25.98;;
55025;SDS011;40925;45.666;18.994;2023-12-07T04:34:20;64.30;;;29.30;;
55025;SDS011;40925;45.666;18.994;2023-12-07T04:36:46;70.03;;;29.08;;
55025;SDS011;40925;45.666;18.994;2023-12-07T04:39:12;67.93;;;28.85;;
55025;SDS011;40925;45.666;18.994;2023-12-07T04:41:37;67.05;;;31.00;;
55025;SDS011;40925;45.666;18.994;2023-12-07T04:44:03;70.25;;;29.67;;
55025;SDS011;40925;45.666;18.994;2023-12-07T04:46:29;61.83;;;26.67;;
55025;SDS011;40925;45.666;18.994;2023-12-07T04:48:55;66.47;;;28.27;;
55025;SDS011;40925;45.666;18.994;2023-12-07T04:51:20;65.55;;;27.95;;
55025;SDS011;40925;45.666;18.994;2023-12-07T04:53:46;46.83;;;20.73;;
55025;SDS011;40925;45.666;18.994;2023-12-07T04:56:15;61.45;;;26.73;;
55025;SDS011;40925;45.666;18.994;2023-12-07T04:58:41;62.20;;;27.65;;
55025;SDS011;40925;45.666;18.994;2023-12-07T05:01:06;59.67;;;25.95;;
55025;SDS011;40925;45.666;18.994;2023-12-07T05:03:32;63.55;;;27.80;;
55025;SDS011;40925;45.666;18.994;2023-12-07T05:05:58;65.90;;;28.05;;
55025;SDS011;40925;45.666;18.994;2023-12-07T05:08:23;62.83;;;27.38;;
55025;SDS011;40925;45.666;18.994;2023-12-07T05:10:52;59.60;;;26.45;;
55025;SDS011;40925;45.666;18.994;2023-12-07T05:13:18;62.65;;;27.98;;
55025;SDS011;40925;45.666;18.994;2023-12-07T05:15:43;59.65;;;24.77;;
55025;SDS011;40925;45.666;18.994;2023-12-07T05:18:11;57.97;;;26.27;;
55025;SDS011;40925;45.666;18.994;2023-12-07T05:20:37;57.30;;;25.35;;
55025;SDS011;40925;45.666;18.994;2023-12-07T05:23:04;52.78;;;23.50;;
55025;SDS011;40925;45.666;18.994;2023-12-07T05:25:30;54.85;;;24.98;;
55025;SDS011;40925;45.666;18.994;2023-12-07T05:27:57;51.92;;;22.63;;
55025;SDS011;40925;45.666;18.994;2023-12-07T05:30:23;52.92;;;23.98;;
55025;SDS011;40925;45.666;18.994;2023-12-07T05:32:49;52.33;;;23.08;;
55025;SDS011;40925;45.666;18.994;2023-12-07T05:35:15;53.15;;;24.52;;
55025;SDS011;40925;45.666;18.994;2023-12-07T05:37:41;54.80;;;25.13;;
55025;SDS011;40925;45.666;18.994;2023-12-07T05:40:07;52.80;;;23.98;;
55025;SDS011;40925;45.666;18.994;2023-12-07T05:42:35;52.45;;;24.60;;
55025;SDS011;40925;45.666;18.994;2023-12-07T05:45:01;51.00;;;23.83;;
55025;SDS011;40925;45.666;18.994;2023-12-07T05:47:28;49.03;;;23.17;;
55025;SDS011;40925;45.666;18.994;2023-12-07T05:49:54;51.35;;;22.80;;
55025;SDS011;40925;45.666;18.994;2023-12-07T05:52:22;50.95;;;23.25;;
55025;SDS011;40925;45.666;18.994;2023-12-07T05:54:48;43.25;;;18.13;;
55025;SDS011;40925;45.666;18.994;2023-12-07T05:57:13;48.47;;;21.60;;
55025;SDS011;40925;45.666;18.994;2023-12-07T05:59:40;54.00;;;24.98;;
55025;SDS011;40925;45.666;18.994;2023-12-07T06:02:07;48.13;;;20.75;;
55025;SDS011;40925;45.666;18.994;2023-12-07T06:04:36;48.20;;;19.98;;
55025;SDS011;40925;45.666;18.994;2023-12-07T06:07:03;53.60;;;23.45;;
55025;SDS011;40925;45.666;18.994;2023-12-07T06:09:29;47.85;;;22.45;;
55025;SDS011;40925;45.666;18.994;2023-12-07T06:11:55;40.70;;;18.80;;
55025;SDS011;40925;45.666;18.994;2023-12-07T06:14:21;46.13;;;21.77;;
55025;SDS011;40925;45.666;18.994;2023-12-07T06:16:48;34.85;;;16.48;;
55025;SDS011;40925;45.666;18.994;2023-12-07T06:19:14;46.50;;;22.15;;
55025;SDS011;40925;45.666;18.994;2023-12-07T06:21:40;41.35;;;18.30;;
55025;SDS011;40925;45.666;18.994;2023-12-07T06:24:06;42.58;;;21.15;;
55025;SDS011;40925;45.666;18.994;2023-12-07T06:26:32;49.58;;;22.05;;
55025;SDS011;40925;45.666;18.994;2023-12-07T06:28:58;42.83;;;21.20;;
55025;SDS011;40925;45.666;18.994;2023-12-07T06:31:24;45.63;;;21.63;;
55025;SDS011;40925;45.666;18.994;2023-12-07T06:33:51;45.28;;;20.50;;
55025;SDS011;40925;45.666;18.994;2023-12-07T06:36:20;44.40;;;21.75;;
55025;SDS011;40925;45.666;18.994;2023-12-07T06:38:47;42.33;;;20.42;;
55025;SDS011;40925;45.666;18.994;2023-12-07T06:41:15;40.35;;;18.92;;
55025;SDS011;40925;45.666;18.994;2023-12-07T06:43:42;44.03;;;21.30;;
55025;SDS011;40925;45.666;18.994;2023-12-07T06:46:09;41.80;;;19.85;;
55025;SDS011;40925;45.666;18.994;2023-12-07T06:48:39;49.22;;;23.08;;
55025;SDS011;40925;45.666;18.994;2023-12-07T06:51:05;46.85;;;22.88;;
55025;SDS011;40925;45.666;18.994;2023-12-07T06:53:31;40.92;;;20.50;;
55025;SDS011;40925;45.666;18.994;2023-12-07T06:56:00;42.28;;;21.42;;
55025;SDS011;40925;45.666;18.994;2023-12-07T06:58:27;41.45;;;21.63;;
55025;SDS011;40925;45.666;18.994;2023-12-07T07:00:54;39.67;;;18.40;;
55025;SDS011;40925;45.666;18.994;2023-12-07T07:03:20;46.25;;;23.20;;
55025;SDS011;40925;45.666;18.994;2023-12-07T07:05:46;41.47;;;21.55;;
55025;SDS011;40925;45.666;18.994;2023-12-07T07:08:12;35.63;;;18.77;;
55025;SDS011;40925;45.666;18.994;2023-12-07T07:10:38;39.22;;;18.88;;
55025;SDS011;40925;45.666;18.994;2023-12-07T07:13:04;35.22;;;17.65;;
55025;SDS011;40925;45.666;18.994;2023-12-07T07:15:30;36.35;;;17.77;;
55025;SDS011;40925;45.666;18.994;2023-12-07T07:17:57;47.83;;;23.92;;
55025;SDS011;40925;45.666;18.994;2023-12-07T07:20:23;31.10;;;15.68;;
55025;SDS011;40925;45.666;18.994;2023-12-07T07:22:50;48.97;;;24.95;;
55025;SDS011;40925;45.666;18.994;2023-12-07T07:28:37;46.85;;;23.40;;
55025;SDS011;40925;45.666;18.994;2023-12-07T07:31:03;46.92;;;23.70;;
55025;SDS011;40925;45.666;18.994;2023-12-07T07:33:30;49.85;;;24.70;;
55025;SDS011;40925;45.666;18.994;2023-12-07T07:35:55;41.72;;;20.98;;
55025;SDS011;40925;45.666;18.994;2023-12-07T07:38:21;44.17;;;22.85;;
55025;SDS011;40925;45.666;18.994;2023-12-07T07:40:47;28.20;;;14.98;;
55025;SDS011;40925;45.666;18.994;2023-12-07T07:43:14;40.17;;;19.50;;
55025;SDS011;40925;45.666;18.994;2023-12-07T07:45:39;44.22;;;21.98;;
55025;SDS011;40925;45.666;18.994;2023-12-07T07:48:05;41.28;;;21.50;;
55025;SDS011;40925;45.666;18.994;2023-12-07T07:50:31;46.55;;;23.10;;
55025;SDS011;40925;45.666;18.994;2023-12-07T07:52:57;41.55;;;21.52;;
55025;SDS011;40925;45.666;18.994;2023-12-07T07:55:22;51.72;;;24.85;;
55025;SDS011;40925;45.666;18.994;2023-12-07T07:57:49;44.88;;;23.38;;
55025;SDS011;40925;45.666;18.994;2023-12-07T08:00:15;38.13;;;19.92;;
55025;SDS011;40925;45.666;18.994;2023-12-07T08:02:41;40.40;;;21.25;;
55025;SDS011;40925;45.666;18.994;2023-12-07T08:05:10;34.25;;;18.63;;
55025;SDS011;40925;45.666;18.994;2023-12-07T08:07:40;34.10;;;16.83;;
55025;SDS011;40925;45.666;18.994;2023-12-07T08:10:08;36.10;;;18.08;;
55025;SDS011;40925;45.666;18.994;2023-12-07T08:12:34;33.80;;;16.92;;
55025;SDS011;40925;45.666;18.994;2023-12-07T08:15:08;35.83;;;17.25;;
55025;SDS011;40925;45.666;18.994;2023-12-07T08:17:39;28.65;;;15.40;;
55025;SDS011;40925;45.666;18.994;2023-12-07T08:20:06;35.72;;;17.52;;
55025;SDS011;40925;45.666;18.994;2023-12-07T08:22:34;32.92;;;17.40;;
55025;SDS011;40925;45.666;18.994;2023-12-07T08:25:00;35.40;;;17.90;;
55025;SDS011;40925;45.666;18.994;2023-12-07T08:27:29;32.58;;;16.73;;
55025;SDS011;40925;45.666;18.994;2023-12-07T08:29:55;29.63;;;15.75;;
55025;SDS011;40925;45.666;18.994;2023-12-07T08:32:21;38.03;;;18.98;;
55025;SDS011;40925;45.666;18.994;2023-12-07T08:34:46;32.50;;;17.40;;
55025;SDS011;40925;45.666;18.994;2023-12-07T08:37:12;36.72;;;18.10;;
55025;SDS011;40925;45.666;18.994;2023-12-07T08:39:38;29.88;;;15.98;;
55025;SDS011;40925;45.666;18.994;2023-12-07T08:42:03;32.88;;;17.38;;
55025;SDS011;40925;45.666;18.994;2023-12-07T08:44:29;32.65;;;18.80;;
55025;SDS011;40925;45.666;18.994;2023-12-07T08:46:55;35.03;;;18.50;;
55025;SDS011;40925;45.666;18.994;2023-12-07T08:49:20;27.67;;;15.05;;
55025;SDS011;40925;45.666;18.994;2023-12-07T08:51:46;28.27;;;15.65;;
55025;SDS011;40925;45.666;18.994;2023-12-07T08:54:12;32.10;;;16.65;;
55025;SDS011;40925;45.666;18.994;2023-12-07T08:56:37;34.78;;;18.73;;
55025;SDS011;40925;45.666;18.994;2023-12-07T08:59:03;33.75;;;17.65;;
55025;SDS011;40925;45.666;18.994;2023-12-07T09:01:29;30.42;;;15.20;;
55025;SDS011;40925;45.666;18.994;2023-12-07T09:03:58;35.30;;;16.45;;
55025;SDS011;40925;45.666;18.994;2023-12-07T09:06:24;37.13;;;19.70;;
55025;SDS011;40925;45.666;18.994;2023-12-07T09:08:50;42.33;;;21.40;;
55025;SDS011;40925;45.666;18.994;2023-12-07T09:11:15;32.55;;;17.55;;
55025;SDS011;40925;45.666;18.994;2023-12-07T09:13:44;28.23;;;15.07;;
55025;SDS011;40925;45.666;18.994;2023-12-07T09:16:10;26.33;;;15.00;;
55025;SDS011;40925;45.666;18.994;2023-12-07T09:18:35;26.83;;;14.75;;
55025;SDS011;40925;45.666;18.994;2023-12-07T09:21:02;29.05;;;16.95;;
55025;SDS011;40925;45.666;18.994;2023-12-07T09:23:37;24.58;;;12.70;;
55025;SDS011;40925;45.666;18.994;2023-12-07T09:26:06;24.83;;;14.00;;
55025;SDS011;40925;45.666;18.994;2023-12-07T09:28:32;26.55;;;15.23;;
55025;SDS011;40925;45.666;18.994;2023-12-07T09:30:59;26.95;;;14.77;;
55025;SDS011;40925;45.666;18.994;2023-12-07T09:33:25;22.67;;;13.50;;
55025;SDS011;40925;45.666;18.994;2023-12-07T09:35:51;22.95;;;13.18;;
55025;SDS011;40925;45.666;18.994;2023-12-07T09:38:16;24.98;;;13.05;;
55025;SDS011;40925;45.666;18.994;2023-12-07T09:40:42;24.02;;;12.50;;
55025;SDS011;40925;45.666;18.994;2023-12-07T09:43:08;28.42;;;14.63;;
55025;SDS011;40925;45.666;18.994;2023-12-07T09:45:34;26.60;;;14.23;;
55025;SDS011;40925;45.666;18.994;2023-12-07T09:48:00;25.45;;;14.45;;
55025;SDS011;40925;45.666;18.994;2023-12-07T09:50:26;22.40;;;13.63;;
55025;SDS011;40925;45.666;18.994;2023-12-07T09:52:56;25.08;;;11.48;;
55025;SDS011;40925;45.666;18.994;2023-12-07T09:55:23;22.48;;;12.40;;
55025;SDS011;40925;45.666;18.994;2023-12-07T09:57:49;23.08;;;13.07;;
55025;SDS011;40925;45.666;18.994;2023-12-07T10:00:16;24.75;;;12.40;;
55025;SDS011;40925;45.666;18.994;2023-12-07T10:02:44;21.17;;;12.32;;
55025;SDS011;40925;45.666;18.994;2023-12-07T10:05:13;19.00;;;11.25;;
55025;SDS011;40925;45.666;18.994;2023-12-07T10:07:45;21.38;;;12.02;;
55025;SDS011;40925;45.666;18.994;2023-12-07T10:10:13;21.35;;;11.90;;
55025;SDS011;40925;45.666;18.994;2023-12-07T10:12:47;23.40;;;14.15;;
55025;SDS011;40925;45.666;18.994;2023-12-07T10:15:20;23.27;;;13.65;;
55025;SDS011;40925;45.666;18.994;2023-12-07T10:18:08;22.88;;;14.05;;
55025;SDS011;40925;45.666;18.994;2023-12-07T10:20:33;18.50;;;10.00;;
55025;SDS011;40925;45.666;18.994;2023-12-07T10:25:41;25.35;;;14.93;;
55025;SDS011;40925;45.666;18.994;2023-12-07T10:28:08;22.70;;;12.75;;
55025;SDS011;40925;45.666;18.994;2023-12-07T10:30:36;18.85;;;10.80;;
55025;SDS011;40925;45.666;18.994;2023-12-07T10:33:05;25.45;;;15.48;;
55025;SDS011;40925;45.666;18.994;2023-12-07T10:35:32;25.42;;;14.05;;
55025;SDS011;40925;45.666;18.994;2023-12-07T10:37:58;23.83;;;13.57;;
55025;SDS011;40925;45.666;18.994;2023-12-07T10:40:23;26.38;;;14.30;;
55025;SDS011;40925;45.666;18.994;2023-12-07T10:42:49;23.67;;;13.13;;
55025;SDS011;40925;45.666;18.994;2023-12-07T10:45:21;20.23;;;11.55;;
55025;SDS011;40925;45.666;18.994;2023-12-07T10:47:50;24.85;;;12.52;;
55025;SDS011;40925;45.666;18.994;2023-12-07T10:50:21;27.00;;;15.82;;
55025;SDS011;40925;45.666;18.994;2023-12-07T10:52:51;26.75;;;14.93;;
55025;SDS011;40925;45.666;18.994;2023-12-07T10:55:28;24.58;;;13.63;;
55025;SDS011;40925;45.666;18.994;2023-12-07T10:57:54;28.75;;;16.40;;
55025;SDS011;40925;45.666;18.994;2023-12-07T11:00:21;26.65;;;15.77;;
55025;SDS011;40925;45.666;18.994;2023-12-07T11:02:49;27.27;;;15.57;;
55025;SDS011;40925;45.666;18.994;2023-12-07T11:05:17;32.67;;;17.92;;
55025;SDS011;40925;45.666;18.994;2023-12-07T11:07:55;29.55;;;16.50;;
55025;SDS011;40925;45.666;18.994;2023-12-07T11:10:32;28.25;;;15.57;;
55025;SDS011;40925;45.666;18.994;2023-12-07T11:15:56;26.27;;;14.85;;
55025;SDS011;40925;45.666;18.994;2023-12-07T11:18:24;28.42;;;15.43;;
55025;SDS011;40925;45.666;18.994;2023-12-07T11:20:51;25.98;;;14.25;;
55025;SDS011;40925;45.666;18.994;2023-12-07T11:23:21;23.65;;;13.80;;
55025;SDS011;40925;45.666;18.994;2023-12-07T11:25:48;23.45;;;12.63;;
55025;SDS011;40925;45.666;18.994;2023-12-07T11:28:17;23.17;;;13.27;;
55025;SDS011;40925;45.666;18.994;2023-12-07T11:30:46;26.55;;;14.82;;
55025;SDS011;40925;45.666;18.994;2023-12-07T11:33:12;23.45;;;13.75;;
55025;SDS011;40925;45.666;18.994;2023-12-07T11:38:27;20.35;;;12.10;;
55025;SDS011;40925;45.666;18.994;2023-12-07T11:40:54;23.48;;;12.88;;
55025;SDS011;40925;45.666;18.994;2023-12-07T11:46:00;18.73;;;11.02;;
55025;SDS011;40925;45.666;18.994;2023-12-07T11:48:26;19.17;;;11.35;;
55025;SDS011;40925;45.666;18.994;2023-12-07T11:50:56;17.30;;;10.82;;
55025;SDS011;40925;45.666;18.994;2023-12-07T11:53:33;15.60;;;9.82;;
55025;SDS011;40925;45.666;18.994;2023-12-07T11:56:06;16.70;;;10.00;;
55025;SDS011;40925;45.666;18.994;2023-12-07T11:58:33;18.30;;;11.50;;
55025;SDS011;40925;45.666;18.994;2023-12-07T12:01:03;19.90;;;11.02;;
55025;SDS011;40925;45.666;18.994;2023-12-07T12:03:30;17.70;;;10.38;;
55025;SDS011;40925;45.666;18.994;2023-12-07T12:06:02;20.55;;;11.80;;
55025;SDS011;40925;45.666;18.994;2023-12-07T12:08:31;21.27;;;11.63;;
55025;SDS011;40925;45.666;18.994;2023-12-07T12:11:00;21.88;;;11.95;;
55025;SDS011;40925;45.666;18.994;2023-12-07T12:13:27;19.10;;;10.68;;
55025;SDS011;40925;45.666;18.994;2023-12-07T12:15:54;19.55;;;11.80;;
55025;SDS011;40925;45.666;18.994;2023-12-07T12:18:21;24.17;;;13.27;;
55025;SDS011;40925;45.666;18.994;2023-12-07T12:20:47;30.95;;;16.42;;
55025;SDS011;40925;45.666;18.994;2023-12-07T12:23:15;29.52;;;15.63;;
55025;SDS011;40925;45.666;18.994;2023-12-07T12:25:41;31.35;;;17.58;;
55025;SDS011;40925;45.666;18.994;2023-12-07T12:28:10;22.52;;;12.98;;
55025;SDS011;40925;45.666;18.994;2023-12-07T12:30:42;18.90;;;11.27;;
55025;SDS011;40925;45.666;18.994;2023-12-07T12:33:09;26.35;;;15.15;;
55025;SDS011;40925;45.666;18.994;2023-12-07T12:35:35;28.58;;;16.08;;
55025;SDS011;40925;45.666;18.994;2023-12-07T12:38:00;21.33;;;12.82;;
55025;SDS011;40925;45.666;18.994;2023-12-07T12:40:27;22.25;;;13.07;;
55025;SDS011;40925;45.666;18.994;2023-12-07T12:42:57;23.27;;;14.10;;
55025;SDS011;40925;45.666;18.994;2023-12-07T12:45:23;20.80;;;12.35;;
55025;SDS011;40925;45.666;18.994;2023-12-07T12:47:49;25.08;;;14.77;;
55025;SDS011;40925;45.666;18.994;2023-12-07T12:53:09;21.00;;;12.75;;
55025;SDS011;40925;45.666;18.994;2023-12-07T12:55:39;22.42;;;13.15;;
55025;SDS011;40925;45.666;18.994;2023-12-07T12:58:09;24.48;;;14.70;;
55025;SDS011;40925;45.666;18.994;2023-12-07T13:00:38;24.77;;;14.75;;
55025;SDS011;40925;45.666;18.994;2023-12-07T13:03:04;23.02;;;13.65;;
55025;SDS011;40925;45.666;18.994;2023-12-07T13:05:31;23.58;;;13.07;;
55025;SDS011;40925;45.666;18.994;2023-12-07T13:07:59;25.35;;;15.25;;
55025;SDS011;40925;45.666;18.994;2023-12-07T13:10:26;25.95;;;14.27;;
55025;SDS011;40925;45.666;18.994;2023-12-07T13:12:53;31.00;;;18.38;;
55025;SDS011;40925;45.666;18.994;2023-12-07T13:15:20;27.70;;;16.05;;
55025;SDS011;40925;45.666;18.994;2023-12-07T13:17:46;17.67;;;10.20;;
55025;SDS011;40925;45.666;18.994;2023-12-07T13:20:12;30.55;;;16.23;;
55025;SDS011;40925;45.666;18.994;2023-12-07T13:22:42;23.38;;;13.55;;
55025;SDS011;40925;45.666;18.994;2023-12-07T13:25:11;24.73;;;14.75;;
55025;SDS011;40925;45.666;18.994;2023-12-07T13:27:39;24.30;;;14.63;;
55025;SDS011;40925;45.666;18.994;2023-12-07T13:30:05;25.70;;;14.50;;
55025;SDS011;40925;45.666;18.994;2023-12-07T13:32:35;25.38;;;15.10;;
55025;SDS011;40925;45.666;18.994;2023-12-07T13:35:07;25.38;;;14.88;;
55025;SDS011;40925;45.666;18.994;2023-12-07T13:37:33;21.65;;;12.27;;
55025;SDS011;40925;45.666;18.994;2023-12-07T13:39:59;23.17;;;13.00;;
55025;SDS011;40925;45.666;18.994;2023-12-07T13:42:29;22.92;;;13.60;;
55025;SDS011;40925;45.666;18.994;2023-12-07T13:44:56;27.70;;;15.35;;
55025;SDS011;40925;45.666;18.994;2023-12-07T13:47:26;20.33;;;12.60;;
55025;SDS011;40925;45.666;18.994;2023-12-07T13:50:01;27.38;;;16.58;;
55025;SDS011;40925;45.666;18.994;2023-12-07T13:52:29;28.25;;;16.52;;
55025;SDS011;40925;45.666;18.994;2023-12-07T13:54:56;26.75;;;15.13;;
55025;SDS011;40925;45.666;18.994;2023-12-07T13:57:22;27.88;;;14.55;;
55025;SDS011;40925;45.666;18.994;2023-12-07T13:59:51;23.70;;;12.93;;
55025;SDS011;40925;45.666;18.994;2023-12-07T14:02:18;27.90;;;15.65;;
55025;SDS011;40925;45.666;18.994;2023-12-07T14:04:45;29.50;;;16.60;;
55025;SDS011;40925;45.666;18.994;2023-12-07T14:07:15;27.52;;;15.60;;
55025;SDS011;40925;45.666;18.994;2023-12-07T14:09:46;29.17;;;15.68;;
55025;SDS011;40925;45.666;18.994;2023-12-07T14:12:14;27.08;;;15.23;;
55025;SDS011;40925;45.666;18.994;2023-12-07T14:14:43;24.25;;;13.80;;
55025;SDS011;40925;45.666;18.994;2023-12-07T14:17:11;28.75;;;16.98;;
55025;SDS011;40925;45.666;18.994;2023-12-07T14:19:40;33.03;;;18.40;;
55025;SDS011;40925;45.666;18.994;2023-12-07T14:22:06;32.38;;;18.55;;
55025;SDS011;40925;45.666;18.994;2023-12-07T14:24:36;31.58;;;17.98;;
55025;SDS011;40925;45.666;18.994;2023-12-07T14:27:02;28.33;;;17.08;;
55025;SDS011;40925;45.666;18.994;2023-12-07T14:29:29;27.55;;;16.50;;